Forside
METAR-TAF:

METAR-TAF

Lufthavne :

Wallis, Frankrig

Breddekreds: 13-14S, længdekreds: 176-10W, højde: 23 m

METAR: fraværende

Tid: 12:28 (00:28 UTC)

Vejrudsigter

Denne rapport blev lavet for 1 time og 28 minutter siden, kl. 23:00 UTC
Foreløbig gælder fra 21 på 00 UTC til 21 på 24 UTC
Vind 10 kt fra sydøst
Sigt 10 km eller mere
Spredte skyer i en højde af 2000 ft
Spredte skyer i en højde af 5000 ft
Sandsynlighed 30% :
Midlertidig
fra 21 på 00 UTC til 21 på 02 UTC
Sigt: 3000 m
Brudte skyer i en højde af 1400 ft
Nogle få skyer i en højde af 2000 ft, Cumulonimbus.
regnbyger
Sandsynlighed 40% :
Midlertidig
fra 21 på 09 UTC til 21 på 24 UTC
Sigt: 4000 m
Brudte skyer i en højde af 1400 ft
Nogle få skyer i en højde af 2000 ft, Cumulonimbus.
regnbyger

TAF: NLWW 202300Z 2100/2124 14010KT 9999 SCT020 SCT050 PROB30 TEMPO 2100/2102 3000 SHRA BKN014 FEW020CB PROB40 TEMPO 2109/2124 4000 SHRA BKN014 FEW020CB

Vejrobservationer og prognoser fra mere end 4000 lufthavne (METAR og TAF).

De gule og røde prikker repræsenterer de meteorologiske stationer.

Flyt musen over at se navnet på stationen.

Så klik over at se vejr observationer og prognoser.

At skifte det kort: Klik på de grønne knapper med et sort kors for at zoome ind; på den grønne knap med en bindestreg for at zoome ud; eller på de grønne pile for tilstødende kort.


METAR-TAF: